sensor_id;sensor_type;location;lat;lon;timestamp;temperature;humidity
4874;DHT22;2451;49.970;9.068;2023-10-08T00:01:02;15.10;99.90
4874;DHT22;2451;49.970;9.068;2023-10-08T00:03:28;15.00;99.90
4874;DHT22;2451;49.970;9.068;2023-10-08T00:05:55;15.00;99.90
4874;DHT22;2451;49.970;9.068;2023-10-08T00:08:21;15.00;99.90
4874;DHT22;2451;49.970;9.068;2023-10-08T00:10:47;14.90;99.90
4874;DHT22;2451;49.970;9.068;2023-10-08T00:13:13;14.90;99.90
4874;DHT22;2451;49.970;9.068;2023-10-08T00:15:41;14.80;99.90
4874;DHT22;2451;49.970;9.068;2023-10-08T00:18:10;14.80;99.90
4874;DHT22;2451;49.970;9.068;2023-10-08T00:20:37;14.80;99.90
4874;DHT22;2451;49.970;9.068;2023-10-08T00:23:23;14.80;99.90
4874;DHT22;2451;49.970;9.068;2023-10-08T00:25:52;14.70;99.90
4874;DHT22;2451;49.970;9.068;2023-10-08T00:28:17;14.70;99.90
4874;DHT22;2451;49.970;9.068;2023-10-08T00:30:43;14.70;99.90
4874;DHT22;2451;49.970;9.068;2023-10-08T00:33:10;14.70;99.90
4874;DHT22;2451;49.970;9.068;2023-10-08T00:35:41;14.70;99.90
4874;DHT22;2451;49.970;9.068;2023-10-08T00:38:08;14.70;99.90
4874;DHT22;2451;49.970;9.068;2023-10-08T00:40:40;14.70;99.90
4874;DHT22;2451;49.970;9.068;2023-10-08T00:43:09;14.70;99.90
4874;DHT22;2451;49.970;9.068;2023-10-08T00:45:38;14.70;99.90
4874;DHT22;2451;49.970;9.068;2023-10-08T00:48:10;14.70;99.90
4874;DHT22;2451;49.970;9.068;2023-10-08T00:50:42;14.70;99.90
4874;DHT22;2451;49.970;9.068;2023-10-08T00:53:09;14.70;99.90
4874;DHT22;2451;49.970;9.068;2023-10-08T00:55:47;14.70;99.90
4874;DHT22;2451;49.970;9.068;2023-10-08T00:58:19;14.70;99.90
4874;DHT22;2451;49.970;9.068;2023-10-08T01:00:51;14.70;99.90
4874;DHT22;2451;49.970;9.068;2023-10-08T01:03:18;14.70;99.90
4874;DHT22;2451;49.970;9.068;2023-10-08T01:05:45;14.70;99.90
4874;DHT22;2451;49.970;9.068;2023-10-08T01:08:13;14.70;99.90
4874;DHT22;2451;49.970;9.068;2023-10-08T01:10:43;14.70;99.90
4874;DHT22;2451;49.970;9.068;2023-10-08T01:13:12;14.70;99.90
4874;DHT22;2451;49.970;9.068;2023-10-08T01:15:45;14.70;99.90
4874;DHT22;2451;49.970;9.068;2023-10-08T01:18:13;14.70;99.90
4874;DHT22;2451;49.970;9.068;2023-10-08T01:20:44;14.70;99.90
4874;DHT22;2451;49.970;9.068;2023-10-08T01:23:12;14.80;99.90
4874;DHT22;2451;49.970;9.068;2023-10-08T01:25:48;14.80;99.90
4874;DHT22;2451;49.970;9.068;2023-10-08T01:28:18;14.90;99.90
4874;DHT22;2451;49.970;9.068;2023-10-08T01:30:57;14.90;99.90
4874;DHT22;2451;49.970;9.068;2023-10-08T01:33:26;15.00;99.90
4874;DHT22;2451;49.970;9.068;2023-10-08T01:36:03;15.10;99.90
4874;DHT22;2451;49.970;9.068;2023-10-08T01:38:31;15.10;99.90
4874;DHT22;2451;49.970;9.068;2023-10-08T01:40:58;15.20;99.90
4874;DHT22;2451;49.970;9.068;2023-10-08T01:43:28;15.20;99.90
4874;DHT22;2451;49.970;9.068;2023-10-08T01:45:55;15.30;99.90
4874;DHT22;2451;49.970;9.068;2023-10-08T01:48:20;15.30;99.90
4874;DHT22;2451;49.970;9.068;2023-10-08T01:50:57;15.40;99.90
4874;DHT22;2451;49.970;9.068;2023-10-08T01:53:27;15.40;99.90
4874;DHT22;2451;49.970;9.068;2023-10-08T01:55:52;15.40;99.90
4874;DHT22;2451;49.970;9.068;2023-10-08T01:58:19;15.40;99.90
4874;DHT22;2451;49.970;9.068;2023-10-08T02:00:46;15.30;99.90
4874;DHT22;2451;49.970;9.068;2023-10-08T02:03:13;15.30;99.90
4874;DHT22;2451;49.970;9.068;2023-10-08T02:05:42;15.30;99.90
4874;DHT22;2451;49.970;9.068;2023-10-08T02:08:09;15.20;99.90
4874;DHT22;2451;49.970;9.068;2023-10-08T02:10:36;15.20;99.90
4874;DHT22;2451;49.970;9.068;2023-10-08T02:13:02;15.20;99.90
4874;DHT22;2451;49.970;9.068;2023-10-08T02:15:27;15.10;99.90
4874;DHT22;2451;49.970;9.068;2023-10-08T02:17:53;15.10;99.90
4874;DHT22;2451;49.970;9.068;2023-10-08T02:20:20;15.10;99.90
4874;DHT22;2451;49.970;9.068;2023-10-08T02:22:47;15.00;99.90
4874;DHT22;2451;49.970;9.068;2023-10-08T02:25:14;15.00;99.90
4874;DHT22;2451;49.970;9.068;2023-10-08T02:27:40;14.90;99.90
4874;DHT22;2451;49.970;9.068;2023-10-08T02:30:07;14.90;99.90
4874;DHT22;2451;49.970;9.068;2023-10-08T02:32:34;14.80;99.90
4874;DHT22;2451;49.970;9.068;2023-10-08T02:35:02;14.80;99.90
4874;DHT22;2451;49.970;9.068;2023-10-08T02:37:28;14.70;99.90
4874;DHT22;2451;49.970;9.068;2023-10-08T02:39:53;14.70;99.90
4874;DHT22;2451;49.970;9.068;2023-10-08T02:42:20;14.60;99.90
4874;DHT22;2451;49.970;9.068;2023-10-08T02:44:45;14.60;99.90
4874;DHT22;2451;49.970;9.068;2023-10-08T02:47:12;14.50;99.90
4874;DHT22;2451;49.970;9.068;2023-10-08T02:49:46;14.50;99.90
4874;DHT22;2451;49.970;9.068;2023-10-08T02:52:14;14.50;99.90
4874;DHT22;2451;49.970;9.068;2023-10-08T02:54:41;14.50;99.90
4874;DHT22;2451;49.970;9.068;2023-10-08T02:57:07;14.50;99.90
4874;DHT22;2451;49.970;9.068;2023-10-08T02:59:40;14.50;99.90
4874;DHT22;2451;49.970;9.068;2023-10-08T03:02:13;14.40;99.90
4874;DHT22;2451;49.970;9.068;2023-10-08T03:04:47;14.40;99.90
4874;DHT22;2451;49.970;9.068;2023-10-08T03:07:14;14.40;99.90
4874;DHT22;2451;49.970;9.068;2023-10-08T03:09:58;14.40;99.90
4874;DHT22;2451;49.970;9.068;2023-10-08T03:12:43;14.40;99.90
4874;DHT22;2451;49.970;9.068;2023-10-08T03:15:12;14.40;99.90
4874;DHT22;2451;49.970;9.068;2023-10-08T03:18:03;14.40;99.90
4874;DHT22;2451;49.970;9.068;2023-10-08T03:20:36;14.40;99.90
4874;DHT22;2451;49.970;9.068;2023-10-08T03:23:09;14.40;99.90
4874;DHT22;2451;49.970;9.068;2023-10-08T03:25:58;14.40;99.90
4874;DHT22;2451;49.970;9.068;2023-10-08T03:28:30;14.40;99.90
4874;DHT22;2451;49.970;9.068;2023-10-08T03:31:00;14.30;99.90
4874;DHT22;2451;49.970;9.068;2023-10-08T03:33:35;14.30;99.90
4874;DHT22;2451;49.970;9.068;2023-10-08T03:36:03;14.30;99.90
4874;DHT22;2451;49.970;9.068;2023-10-08T03:38:39;14.20;99.90
4874;DHT22;2451;49.970;9.068;2023-10-08T03:41:11;14.30;99.90
4874;DHT22;2451;49.970;9.068;2023-10-08T03:43:45;14.30;99.90
4874;DHT22;2451;49.970;9.068;2023-10-08T03:46:30;14.20;99.90
4874;DHT22;2451;49.970;9.068;2023-10-08T03:48:57;14.20;99.90
4874;DHT22;2451;49.970;9.068;2023-10-08T03:51:27;14.20;99.90
4874;DHT22;2451;49.970;9.068;2023-10-08T03:53:53;14.20;99.90
4874;DHT22;2451;49.970;9.068;2023-10-08T03:56:34;14.20;99.90
4874;DHT22;2451;49.970;9.068;2023-10-08T03:59:02;14.20;99.90
4874;DHT22;2451;49.970;9.068;2023-10-08T04:01:46;14.10;99.90
4874;DHT22;2451;49.970;9.068;2023-10-08T04:04:14;14.10;99.90
4874;DHT22;2451;49.970;9.068;2023-10-08T04:06:41;14.10;99.90
4874;DHT22;2451;49.970;9.068;2023-10-08T04:09:15;14.00;99.90
4874;DHT22;2451;49.970;9.068;2023-10-08T04:11:50;14.00;99.90
4874;DHT22;2451;49.970;9.068;2023-10-08T04:14:23;14.00;99.90
4874;DHT22;2451;49.970;9.068;2023-10-08T04:16:49;14.00;99.90
4874;DHT22;2451;49.970;9.068;2023-10-08T04:19:19;14.10;99.90
4874;DHT22;2451;49.970;9.068;2023-10-08T04:21:46;14.10;99.90
4874;DHT22;2451;49.970;9.068;2023-10-08T04:24:26;14.10;99.90
4874;DHT22;2451;49.970;9.068;2023-10-08T04:27:00;14.10;99.90
4874;DHT22;2451;49.970;9.068;2023-10-08T04:29:28;14.10;99.90
4874;DHT22;2451;49.970;9.068;2023-10-08T04:31:58;14.10;99.90
4874;DHT22;2451;49.970;9.068;2023-10-08T04:34:33;14.20;99.90
4874;DHT22;2451;49.970;9.068;2023-10-08T04:36:59;14.20;99.90
4874;DHT22;2451;49.970;9.068;2023-10-08T04:39:27;14.20;99.90
4874;DHT22;2451;49.970;9.068;2023-10-08T04:42:02;14.20;99.90
4874;DHT22;2451;49.970;9.068;2023-10-08T04:44:32;14.20;99.90
4874;DHT22;2451;49.970;9.068;2023-10-08T04:46:58;14.20;99.90
4874;DHT22;2451;49.970;9.068;2023-10-08T04:49:30;14.30;99.90
4874;DHT22;2451;49.970;9.068;2023-10-08T04:52:03;14.30;99.90
4874;DHT22;2451;49.970;9.068;2023-10-08T04:54:42;14.30;99.90
4874;DHT22;2451;49.970;9.068;2023-10-08T04:57:17;14.30;99.90
4874;DHT22;2451;49.970;9.068;2023-10-08T04:59:43;14.30;99.90
4874;DHT22;2451;49.970;9.068;2023-10-08T05:02:09;14.30;99.90
4874;DHT22;2451;49.970;9.068;2023-10-08T05:04:49;14.30;99.90
4874;DHT22;2451;49.970;9.068;2023-10-08T05:07:21;14.20;99.90
4874;DHT22;2451;49.970;9.068;2023-10-08T05:10:06;14.30;99.90
4874;DHT22;2451;49.970;9.068;2023-10-08T05:12:31;14.30;99.90
4874;DHT22;2451;49.970;9.068;2023-10-08T05:15:06;14.30;99.90
4874;DHT22;2451;49.970;9.068;2023-10-08T05:17:39;14.30;99.90
4874;DHT22;2451;49.970;9.068;2023-10-08T05:20:20;14.30;99.90
4874;DHT22;2451;49.970;9.068;2023-10-08T05:23:09;14.30;99.90
4874;DHT22;2451;49.970;9.068;2023-10-08T05:25:52;14.30;99.90
4874;DHT22;2451;49.970;9.068;2023-10-08T05:28:35;14.30;99.90
4874;DHT22;2451;49.970;9.068;2023-10-08T05:31:11;14.30;99.90
4874;DHT22;2451;49.970;9.068;2023-10-08T05:33:47;14.40;99.90
4874;DHT22;2451;49.970;9.068;2023-10-08T05:36:40;14.40;99.90
4874;DHT22;2451;49.970;9.068;2023-10-08T05:39:41;14.40;99.90
4874;DHT22;2451;49.970;9.068;2023-10-08T05:42:19;14.50;99.90
4874;DHT22;2451;49.970;9.068;2023-10-08T05:44:56;14.60;99.90
4874;DHT22;2451;49.970;9.068;2023-10-08T05:47:51;14.70;99.90
4874;DHT22;2451;49.970;9.068;2023-10-08T05:50:33;14.80;99.90
4874;DHT22;2451;49.970;9.068;2023-10-08T05:53:07;14.90;99.90
4874;DHT22;2451;49.970;9.068;2023-10-08T05:55:55;15.00;99.90
4874;DHT22;2451;49.970;9.068;2023-10-08T05:58:40;15.00;99.90
4874;DHT22;2451;49.970;9.068;2023-10-08T06:01:11;15.10;99.90
4874;DHT22;2451;49.970;9.068;2023-10-08T06:03:51;15.10;99.90
4874;DHT22;2451;49.970;9.068;2023-10-08T06:06:28;15.20;99.90
4874;DHT22;2451;49.970;9.068;2023-10-08T06:09:03;15.20;99.90
4874;DHT22;2451;49.970;9.068;2023-10-08T06:11:36;15.20;99.90
4874;DHT22;2451;49.970;9.068;2023-10-08T06:14:05;15.20;99.90
4874;DHT22;2451;49.970;9.068;2023-10-08T06:16:43;15.30;99.90
4874;DHT22;2451;49.970;9.068;2023-10-08T06:19:13;15.30;99.90
4874;DHT22;2451;49.970;9.068;2023-10-08T06:21:41;15.30;99.90
4874;DHT22;2451;49.970;9.068;2023-10-08T06:24:08;15.30;99.90
4874;DHT22;2451;49.970;9.068;2023-10-08T06:26:42;15.30;99.90
4874;DHT22;2451;49.970;9.068;2023-10-08T06:29:11;15.30;99.90
4874;DHT22;2451;49.970;9.068;2023-10-08T06:31:54;15.30;99.90
4874;DHT22;2451;49.970;9.068;2023-10-08T06:34:21;15.40;99.90
4874;DHT22;2451;49.970;9.068;2023-10-08T06:36:48;15.40;99.90
4874;DHT22;2451;49.970;9.068;2023-10-08T06:39:22;15.40;99.90
4874;DHT22;2451;49.970;9.068;2023-10-08T06:41:58;15.40;99.90
4874;DHT22;2451;49.970;9.068;2023-10-08T06:44:24;15.50;99.90
4874;DHT22;2451;49.970;9.068;2023-10-08T06:46:50;15.50;99.90
4874;DHT22;2451;49.970;9.068;2023-10-08T06:49:18;15.50;99.90
4874;DHT22;2451;49.970;9.068;2023-10-08T06:51:44;15.50;99.90
4874;DHT22;2451;49.970;9.068;2023-10-08T06:54:10;15.50;99.90
4874;DHT22;2451;49.970;9.068;2023-10-08T06:56:39;15.50;99.90
4874;DHT22;2451;49.970;9.068;2023-10-08T06:59:05;15.60;99.90
4874;DHT22;2451;49.970;9.068;2023-10-08T07:01:34;15.60;99.90
4874;DHT22;2451;49.970;9.068;2023-10-08T07:04:06;15.60;99.90
4874;DHT22;2451;49.970;9.068;2023-10-08T07:06:43;15.60;99.90
4874;DHT22;2451;49.970;9.068;2023-10-08T07:09:11;15.60;99.90
4874;DHT22;2451;49.970;9.068;2023-10-08T07:11:52;15.60;99.90
4874;DHT22;2451;49.970;9.068;2023-10-08T07:14:28;15.60;99.90
4874;DHT22;2451;49.970;9.068;2023-10-08T07:16:59;15.70;99.90
4874;DHT22;2451;49.970;9.068;2023-10-08T07:19:26;15.70;99.90
4874;DHT22;2451;49.970;9.068;2023-10-08T07:22:02;15.70;99.90
4874;DHT22;2451;49.970;9.068;2023-10-08T07:24:49;15.80;99.90
4874;DHT22;2451;49.970;9.068;2023-10-08T07:27:17;15.90;99.90
4874;DHT22;2451;49.970;9.068;2023-10-08T07:29:47;16.00;99.90
4874;DHT22;2451;49.970;9.068;2023-10-08T07:32:13;16.00;99.90
4874;DHT22;2451;49.970;9.068;2023-10-08T07:34:41;16.10;99.90
4874;DHT22;2451;49.970;9.068;2023-10-08T07:37:09;16.20;99.90
4874;DHT22;2451;49.970;9.068;2023-10-08T07:39:37;16.20;99.90
4874;DHT22;2451;49.970;9.068;2023-10-08T07:42:10;16.30;99.90
4874;DHT22;2451;49.970;9.068;2023-10-08T07:44:36;16.40;99.90
4874;DHT22;2451;49.970;9.068;2023-10-08T07:47:02;16.50;99.90
4874;DHT22;2451;49.970;9.068;2023-10-08T07:49:31;16.50;99.90
4874;DHT22;2451;49.970;9.068;2023-10-08T07:51:58;16.70;99.90
4874;DHT22;2451;49.970;9.068;2023-10-08T07:54:25;16.70;99.90
4874;DHT22;2451;49.970;9.068;2023-10-08T07:56:53;16.80;99.90
4874;DHT22;2451;49.970;9.068;2023-10-08T08:02:13;17.00;99.90
4874;DHT22;2451;49.970;9.068;2023-10-08T08:04:42;17.10;99.90
4874;DHT22;2451;49.970;9.068;2023-10-08T08:07:11;17.10;99.90
4874;DHT22;2451;49.970;9.068;2023-10-08T08:09:45;17.20;99.90
4874;DHT22;2451;49.970;9.068;2023-10-08T08:12:21;17.30;99.90
4874;DHT22;2451;49.970;9.068;2023-10-08T08:14:51;17.40;99.90
4874;DHT22;2451;49.970;9.068;2023-10-08T08:17:20;17.40;99.90
4874;DHT22;2451;49.970;9.068;2023-10-08T08:19:49;17.40;99.90
4874;DHT22;2451;49.970;9.068;2023-10-08T08:22:19;17.50;99.90
4874;DHT22;2451;49.970;9.068;2023-10-08T08:24:50;17.60;99.90
4874;DHT22;2451;49.970;9.068;2023-10-08T08:27:20;17.80;99.90
4874;DHT22;2451;49.970;9.068;2023-10-08T08:29:57;17.90;99.90
4874;DHT22;2451;49.970;9.068;2023-10-08T08:32:38;18.00;99.90
4874;DHT22;2451;49.970;9.068;2023-10-08T08:35:08;17.90;99.90
4874;DHT22;2451;49.970;9.068;2023-10-08T08:37:34;18.00;99.90
4874;DHT22;2451;49.970;9.068;2023-10-08T08:40:09;17.90;99.90
4874;DHT22;2451;49.970;9.068;2023-10-08T08:42:46;17.90;99.90
4874;DHT22;2451;49.970;9.068;2023-10-08T08:45:13;17.90;99.90
4874;DHT22;2451;49.970;9.068;2023-10-08T08:47:41;17.90;99.90
4874;DHT22;2451;49.970;9.068;2023-10-08T08:50:07;17.90;99.90
4874;DHT22;2451;49.970;9.068;2023-10-08T08:52:37;17.90;99.90
4874;DHT22;2451;49.970;9.068;2023-10-08T08:55:04;17.90;99.90
4874;DHT22;2451;49.970;9.068;2023-10-08T08:57:35;18.00;99.90
4874;DHT22;2451;49.970;9.068;2023-10-08T09:00:01;18.00;99.90
4874;DHT22;2451;49.970;9.068;2023-10-08T09:02:34;18.00;99.90
4874;DHT22;2451;49.970;9.068;2023-10-08T09:05:00;18.10;99.90
4874;DHT22;2451;49.970;9.068;2023-10-08T09:07:51;18.10;99.90
4874;DHT22;2451;49.970;9.068;2023-10-08T09:10:17;18.20;99.90
4874;DHT22;2451;49.970;9.068;2023-10-08T09:12:43;18.30;99.90
4874;DHT22;2451;49.970;9.068;2023-10-08T09:15:10;18.40;99.90
4874;DHT22;2451;49.970;9.068;2023-10-08T09:17:39;18.70;99.90
4874;DHT22;2451;49.970;9.068;2023-10-08T09:20:06;18.90;99.90
4874;DHT22;2451;49.970;9.068;2023-10-08T09:22:32;19.20;99.90
4874;DHT22;2451;49.970;9.068;2023-10-08T09:24:58;19.40;99.90
4874;DHT22;2451;49.970;9.068;2023-10-08T09:27:26;19.60;99.90
4874;DHT22;2451;49.970;9.068;2023-10-08T09:29:51;19.70;99.90
4874;DHT22;2451;49.970;9.068;2023-10-08T09:32:17;19.80;99.90
4874;DHT22;2451;49.970;9.068;2023-10-08T09:34:49;19.80;99.90
4874;DHT22;2451;49.970;9.068;2023-10-08T09:37:17;19.90;99.90
4874;DHT22;2451;49.970;9.068;2023-10-08T09:39:43;19.90;99.90
4874;DHT22;2451;49.970;9.068;2023-10-08T09:42:11;19.90;99.90
4874;DHT22;2451;49.970;9.068;2023-10-08T09:44:38;20.00;99.90
4874;DHT22;2451;49.970;9.068;2023-10-08T09:49:32;20.00;99.90
4874;DHT22;2451;49.970;9.068;2023-10-08T09:52:04;20.00;99.90
4874;DHT22;2451;49.970;9.068;2023-10-08T09:57:05;20.10;99.90
4874;DHT22;2451;49.970;9.068;2023-10-08T09:59:33;20.30;99.90
4874;DHT22;2451;49.970;9.068;2023-10-08T10:02:00;20.40;99.90
4874;DHT22;2451;49.970;9.068;2023-10-08T10:04:26;20.40;99.90
4874;DHT22;2451;49.970;9.068;2023-10-08T10:06:55;20.50;99.90
4874;DHT22;2451;49.970;9.068;2023-10-08T10:09:25;20.70;99.90
4874;DHT22;2451;49.970;9.068;2023-10-08T10:11:53;20.90;99.90
4874;DHT22;2451;49.970;9.068;2023-10-08T10:14:22;21.10;99.90
4874;DHT22;2451;49.970;9.068;2023-10-08T10:17:08;21.20;99.90
4874;DHT22;2451;49.970;9.068;2023-10-08T10:19:36;21.20;99.90
4874;DHT22;2451;49.970;9.068;2023-10-08T10:22:01;21.20;99.90
4874;DHT22;2451;49.970;9.068;2023-10-08T10:24:33;21.20;99.90
4874;DHT22;2451;49.970;9.068;2023-10-08T10:27:30;21.10;99.90
4874;DHT22;2451;49.970;9.068;2023-10-08T10:30:03;20.80;99.90
4874;DHT22;2451;49.970;9.068;2023-10-08T10:32:34;20.80;99.90
4874;DHT22;2451;49.970;9.068;2023-10-08T10:35:00;20.80;99.90
4874;DHT22;2451;49.970;9.068;2023-10-08T10:37:29;20.80;99.90
4874;DHT22;2451;49.970;9.068;2023-10-08T10:40:06;20.90;99.90
4874;DHT22;2451;49.970;9.068;2023-10-08T10:42:38;21.20;99.90
4874;DHT22;2451;49.970;9.068;2023-10-08T10:45:17;21.30;99.90
4874;DHT22;2451;49.970;9.068;2023-10-08T10:48:06;21.40;99.90
4874;DHT22;2451;49.970;9.068;2023-10-08T10:50:51;21.60;99.90
4874;DHT22;2451;49.970;9.068;2023-10-08T10:56:11;21.50;99.90
4874;DHT22;2451;49.970;9.068;2023-10-08T10:58:47;21.50;99.90
4874;DHT22;2451;49.970;9.068;2023-10-08T11:01:22;21.40;99.90
4874;DHT22;2451;49.970;9.068;2023-10-08T11:03:51;21.50;99.90
4874;DHT22;2451;49.970;9.068;2023-10-08T11:06:18;21.60;99.90
4874;DHT22;2451;49.970;9.068;2023-10-08T11:08:51;21.60;99.90
4874;DHT22;2451;49.970;9.068;2023-10-08T11:11:18;21.90;99.90
4874;DHT22;2451;49.970;9.068;2023-10-08T11:13:44;21.90;99.90
4874;DHT22;2451;49.970;9.068;2023-10-08T11:16:17;21.80;99.90
4874;DHT22;2451;49.970;9.068;2023-10-08T11:18:45;21.80;99.90
4874;DHT22;2451;49.970;9.068;2023-10-08T11:21:16;21.90;99.90
4874;DHT22;2451;49.970;9.068;2023-10-08T11:23:45;22.00;99.90
4874;DHT22;2451;49.970;9.068;2023-10-08T11:26:18;22.10;99.90
4874;DHT22;2451;49.970;9.068;2023-10-08T11:28:45;22.20;99.90
4874;DHT22;2451;49.970;9.068;2023-10-08T11:31:14;22.10;99.90
4874;DHT22;2451;49.970;9.068;2023-10-08T11:33:44;22.40;99.90
4874;DHT22;2451;49.970;9.068;2023-10-08T11:36:20;22.40;99.90
4874;DHT22;2451;49.970;9.068;2023-10-08T11:38:47;22.50;99.90
4874;DHT22;2451;49.970;9.068;2023-10-08T11:41:15;22.50;99.90
4874;DHT22;2451;49.970;9.068;2023-10-08T11:43:51;22.40;99.90
4874;DHT22;2451;49.970;9.068;2023-10-08T11:46:29;22.30;99.90
4874;DHT22;2451;49.970;9.068;2023-10-08T11:49:06;22.20;99.90
4874;DHT22;2451;49.970;9.068;2023-10-08T11:51:36;22.20;99.90
4874;DHT22;2451;49.970;9.068;2023-10-08T11:54:02;22.20;99.90
4874;DHT22;2451;49.970;9.068;2023-10-08T11:56:31;22.20;99.90
4874;DHT22;2451;49.970;9.068;2023-10-08T11:58:59;22.30;99.90
4874;DHT22;2451;49.970;9.068;2023-10-08T12:01:25;22.30;99.90
4874;DHT22;2451;49.970;9.068;2023-10-08T12:03:53;22.50;99.90
4874;DHT22;2451;49.970;9.068;2023-10-08T12:06:23;22.70;99.90
4874;DHT22;2451;49.970;9.068;2023-10-08T12:08:49;22.90;99.90
4874;DHT22;2451;49.970;9.068;2023-10-08T12:11:19;23.20;99.90
4874;DHT22;2451;49.970;9.068;2023-10-08T12:13:44;23.40;99.90
4874;DHT22;2451;49.970;9.068;2023-10-08T12:16:14;23.50;99.90
4874;DHT22;2451;49.970;9.068;2023-10-08T12:18:49;23.70;99.90
4874;DHT22;2451;49.970;9.068;2023-10-08T12:21:20;23.80;99.90
4874;DHT22;2451;49.970;9.068;2023-10-08T12:23:46;23.80;99.90
4874;DHT22;2451;49.970;9.068;2023-10-08T12:26:12;23.90;99.90
4874;DHT22;2451;49.970;9.068;2023-10-08T12:28:44;23.90;99.90
4874;DHT22;2451;49.970;9.068;2023-10-08T12:31:12;24.20;99.90
4874;DHT22;2451;49.970;9.068;2023-10-08T12:33:37;24.40;99.90
4874;DHT22;2451;49.970;9.068;2023-10-08T12:36:04;24.90;99.90
4874;DHT22;2451;49.970;9.068;2023-10-08T12:38:42;25.20;99.90
4874;DHT22;2451;49.970;9.068;2023-10-08T12:41:09;25.70;99.90
4874;DHT22;2451;49.970;9.068;2023-10-08T12:43:39;25.90;99.90
4874;DHT22;2451;49.970;9.068;2023-10-08T12:46:08;26.00;99.90
4874;DHT22;2451;49.970;9.068;2023-10-08T12:48:39;26.20;99.90
4874;DHT22;2451;49.970;9.068;2023-10-08T12:51:04;26.30;99.90
4874;DHT22;2451;49.970;9.068;2023-10-08T12:53:32;26.50;99.90
4874;DHT22;2451;49.970;9.068;2023-10-08T12:56:09;26.20;99.90
4874;DHT22;2451;49.970;9.068;2023-10-08T12:58:41;25.40;99.90
4874;DHT22;2451;49.970;9.068;2023-10-08T13:01:11;25.20;99.90
4874;DHT22;2451;49.970;9.068;2023-10-08T13:03:39;25.10;99.90
4874;DHT22;2451;49.970;9.068;2023-10-08T13:06:08;25.30;99.90
4874;DHT22;2451;49.970;9.068;2023-10-08T13:08:40;25.60;99.90
4874;DHT22;2451;49.970;9.068;2023-10-08T13:11:05;25.90;99.90
4874;DHT22;2451;49.970;9.068;2023-10-08T13:13:31;25.80;99.90
4874;DHT22;2451;49.970;9.068;2023-10-08T13:16:02;25.80;99.90
4874;DHT22;2451;49.970;9.068;2023-10-08T13:18:33;25.70;99.90
4874;DHT22;2451;49.970;9.068;2023-10-08T13:20:59;25.40;99.90
4874;DHT22;2451;49.970;9.068;2023-10-08T13:23:26;25.40;99.90
4874;DHT22;2451;49.970;9.068;2023-10-08T13:25:52;25.40;99.90
4874;DHT22;2451;49.970;9.068;2023-10-08T13:28:23;25.40;99.90
4874;DHT22;2451;49.970;9.068;2023-10-08T13:30:52;25.30;99.90
4874;DHT22;2451;49.970;9.068;2023-10-08T13:33:19;25.30;99.90
4874;DHT22;2451;49.970;9.068;2023-10-08T13:35:46;25.10;99.90
4874;DHT22;2451;49.970;9.068;2023-10-08T13:38:14;25.10;99.90
4874;DHT22;2451;49.970;9.068;2023-10-08T13:40:41;25.10;99.90
4874;DHT22;2451;49.970;9.068;2023-10-08T13:43:30;24.90;99.90
4874;DHT22;2451;49.970;9.068;2023-10-08T13:46:06;24.80;99.90
4874;DHT22;2451;49.970;9.068;2023-10-08T13:48:34;24.60;99.90
4874;DHT22;2451;49.970;9.068;2023-10-08T13:51:02;24.60;99.90
4874;DHT22;2451;49.970;9.068;2023-10-08T13:53:31;24.50;99.90
4874;DHT22;2451;49.970;9.068;2023-10-08T13:56:02;24.40;99.90
4874;DHT22;2451;49.970;9.068;2023-10-08T13:58:30;24.30;99.90
4874;DHT22;2451;49.970;9.068;2023-10-08T14:00:57;24.20;99.90
4874;DHT22;2451;49.970;9.068;2023-10-08T14:03:25;23.90;99.90
4874;DHT22;2451;49.970;9.068;2023-10-08T14:05:51;23.90;99.90
4874;DHT22;2451;49.970;9.068;2023-10-08T14:08:20;23.90;99.90
4874;DHT22;2451;49.970;9.068;2023-10-08T14:10:47;23.80;99.90
4874;DHT22;2451;49.970;9.068;2023-10-08T14:13:15;23.80;99.90
4874;DHT22;2451;49.970;9.068;2023-10-08T14:15:45;23.80;99.90
4874;DHT22;2451;49.970;9.068;2023-10-08T14:18:14;23.90;99.90
4874;DHT22;2451;49.970;9.068;2023-10-08T14:20:43;24.00;99.90
4874;DHT22;2451;49.970;9.068;2023-10-08T14:23:12;23.90;99.90
4874;DHT22;2451;49.970;9.068;2023-10-08T14:25:38;23.80;99.90
4874;DHT22;2451;49.970;9.068;2023-10-08T14:28:10;23.60;99.90
4874;DHT22;2451;49.970;9.068;2023-10-08T14:30:47;23.60;99.90
4874;DHT22;2451;49.970;9.068;2023-10-08T14:33:18;23.40;99.90
4874;DHT22;2451;49.970;9.068;2023-10-08T14:35:50;23.30;99.90
4874;DHT22;2451;49.970;9.068;2023-10-08T14:38:34;23.10;99.90
4874;DHT22;2451;49.970;9.068;2023-10-08T14:41:18;23.00;99.90
4874;DHT22;2451;49.970;9.068;2023-10-08T14:44:02;22.90;99.90
4874;DHT22;2451;49.970;9.068;2023-10-08T14:46:30;22.80;99.90
4874;DHT22;2451;49.970;9.068;2023-10-08T14:48:58;22.70;99.90
4874;DHT22;2451;49.970;9.068;2023-10-08T14:51:24;22.70;99.90
4874;DHT22;2451;49.970;9.068;2023-10-08T14:53:50;22.60;99.90
4874;DHT22;2451;49.970;9.068;2023-10-08T14:56:16;22.50;99.90
4874;DHT22;2451;49.970;9.068;2023-10-08T14:58:43;22.50;99.90
4874;DHT22;2451;49.970;9.068;2023-10-08T15:01:09;22.40;99.90
4874;DHT22;2451;49.970;9.068;2023-10-08T15:03:38;22.20;99.90
4874;DHT22;2451;49.970;9.068;2023-10-08T15:06:04;22.10;99.90
4874;DHT22;2451;49.970;9.068;2023-10-08T15:08:30;22.00;99.90
4874;DHT22;2451;49.970;9.068;2023-10-08T15:10:58;22.00;99.90
4874;DHT22;2451;49.970;9.068;2023-10-08T15:13:23;21.90;99.90
4874;DHT22;2451;49.970;9.068;2023-10-08T15:15:51;21.80;99.90
4874;DHT22;2451;49.970;9.068;2023-10-08T15:18:16;21.70;99.90
4874;DHT22;2451;49.970;9.068;2023-10-08T15:20:44;21.70;99.90
4874;DHT22;2451;49.970;9.068;2023-10-08T15:23:09;21.60;99.90
4874;DHT22;2451;49.970;9.068;2023-10-08T15:25:38;21.50;99.90
4874;DHT22;2451;49.970;9.068;2023-10-08T15:28:05;21.50;99.90
4874;DHT22;2451;49.970;9.068;2023-10-08T15:30:30;21.40;99.90
4874;DHT22;2451;49.970;9.068;2023-10-08T15:32:58;21.40;99.90
4874;DHT22;2451;49.970;9.068;2023-10-08T15:35:23;21.40;99.90
4874;DHT22;2451;49.970;9.068;2023-10-08T15:37:50;21.30;99.90
4874;DHT22;2451;49.970;9.068;2023-10-08T15:40:16;21.30;99.90
4874;DHT22;2451;49.970;9.068;2023-10-08T15:42:49;21.20;99.90
4874;DHT22;2451;49.970;9.068;2023-10-08T15:45:17;21.10;99.90
4874;DHT22;2451;49.970;9.068;2023-10-08T15:47:42;21.00;99.90
4874;DHT22;2451;49.970;9.068;2023-10-08T15:50:08;21.00;99.90
4874;DHT22;2451;49.970;9.068;2023-10-08T15:52:37;21.00;99.90
4874;DHT22;2451;49.970;9.068;2023-10-08T15:55:04;21.00;99.90
4874;DHT22;2451;49.970;9.068;2023-10-08T15:57:30;21.00;99.90
4874;DHT22;2451;49.970;9.068;2023-10-08T15:59:56;21.00;99.90
4874;DHT22;2451;49.970;9.068;2023-10-08T16:02:21;20.90;99.90
4874;DHT22;2451;49.970;9.068;2023-10-08T16:04:47;20.90;99.90
4874;DHT22;2451;49.970;9.068;2023-10-08T16:07:13;20.90;99.90
4874;DHT22;2451;49.970;9.068;2023-10-08T16:09:39;20.80;99.90
4874;DHT22;2451;49.970;9.068;2023-10-08T16:12:06;20.80;99.90
4874;DHT22;2451;49.970;9.068;2023-10-08T16:14:32;20.70;99.90
4874;DHT22;2451;49.970;9.068;2023-10-08T16:16:57;20.70;99.90
4874;DHT22;2451;49.970;9.068;2023-10-08T16:19:23;20.60;99.90
4874;DHT22;2451;49.970;9.068;2023-10-08T16:21:52;20.60;99.90
4874;DHT22;2451;49.970;9.068;2023-10-08T16:24:19;20.50;99.90
4874;DHT22;2451;49.970;9.068;2023-10-08T16:26:44;20.40;99.90
4874;DHT22;2451;49.970;9.068;2023-10-08T16:29:10;20.40;99.90
4874;DHT22;2451;49.970;9.068;2023-10-08T16:31:37;20.30;99.90
4874;DHT22;2451;49.970;9.068;2023-10-08T16:34:07;20.20;99.90